首页
METAR-TAF:

METAR-TAF

机场 :

拉纳卡国际机场

拉纳卡, 塞浦路斯

纬度: 34-53N, 经度: 033-38E, 海拔: 2米

当前天气观测

该预报发布于11分钟前的00:00 UTC
风速6节,风向北转西北
温度 14°C
湿度 72%
气压 1022 hPa
能见度10公里或以上
少量云层高于3000英尺

METAR: LCLK 180000Z 33006KT 9999 FEW030 14/09 Q1022 NOSIG

时间: 02:11 (00:11 UTC)

预报

该预报发布于41分钟前的23:30 UTC
预报有效从18日的 00点(UTC)到 18日的 24点(UTC)
风速7节,风向北转西北
能见度10公里或以上
少量云层高于2500英尺
成为
从 18日的 07点(UTC)到 18日的 10点(UTC)
风速12节,风向
成为
从 18日的 18点(UTC)到 18日的 20点(UTC)
风速7节,风向

TAF: LCLK 172330Z 1800/1824 34007KT 9999 FEW025 BECMG 1807/1810 08012KT BECMG 1818/1820 35007KT

超过4000个机场的气象观测和天气预报(METAR&TAF报告)。

可查询的气象台以黄色和红色小点在地图上表示。

将鼠标移到小点上方,可查看气象台名称。

然后点击查看天气观测和预报。

如需切换地图:点击带黑十字的绿色按钮放大地图;点击带横线的绿色按钮缩小地图;或者点击绿色箭头查看邻近地区的地图。


METAR-TAF: